utilisation pie
utilisation bar
humidity graph
temperature graph
Station id: aae83c for 2 days

start:   stop:  

day time in temp out temp in RH out RH H quota rule action
2020-01-28 00:08:45 8.3 4.8 62 92 118 h 0
2020-01-28 00:38:57 8.1 4.8 63 92 118 h 0
2020-01-28 01:09:09 8.0 4.8 63 92 119 h 0
2020-01-28 01:39:21 7.9 4.8 63 92 119 h 0
2020-01-28 02:09:33 7.9 4.8 63 92 119 h 0
2020-01-28 02:39:45 7.8 4.6 63 92 117 h 0
2020-01-28 03:09:57 8.4 4.1 61 91 111 h 0
2020-01-28 03:40:09 9.1 3.5 59 92 107 h 0
2020-01-28 04:10:21 8.5 3.0 61 92 104 h 0
2020-01-28 04:40:33 8.2 2.7 62 92 103 h 0
2020-01-28 05:10:45 8.2 2.4 62 92 101 h 0
2020-01-28 05:41:08 8.2 2.6 62 93 104 h 0
2020-01-28 06:11:20 8.2 2.7 61 94 106 h 0
2020-01-28 06:41:32 8.3 2.8 61 94 106 h 0
2020-01-28 07:11:44 8.3 2.8 61 94 106 h 0
2020-01-28 07:41:56 8.2 2.9 62 94 107 h 0
2020-01-28 08:12:08 8.2 3.0 62 94 107 h 0
2020-01-28 08:42:20 8.2 3.3 62 94 110 h 0
2020-01-28 09:12:32 8.3 3.5 62 94 111 h 0
2020-01-28 09:42:44 8.2 3.8 62 94 113 h 0
2020-01-28 10:12:56 8.2 3.9 62 94 114 h 0
2020-01-28 10:43:08 8.3 4.1 62 94 116 h 0
2020-01-28 11:13:20 8.2 4.4 62 94 118 h 0
2020-01-28 11:43:33 8.3 4.6 62 93 118 h 0
2020-01-28 12:13:45 8.3 4.7 62 93 119 h 0
2020-01-28 12:43:57 8.3 4.8 62 93 120 h 0
2020-01-28 13:14:09 8.3 4.7 62 93 119 h 0
2020-01-28 13:44:21 8.4 4.6 62 94 119 h 0
2020-01-28 14:14:33 8.3 4.7 62 94 120 h 0
2020-01-28 14:44:50 8.3 4.7 62 94 120 h 0
2020-01-28 15:15:02 8.3 4.6 62 94 119 h 0
2020-01-28 15:45:14 9.1 4.5 60 94 116 h 0
2020-01-28 16:15:27 9.4 4.4 59 94 115 h 0
2020-01-28 16:45:39 8.7 4.3 61 94 115 h 0
2020-01-28 17:15:51 8.6 4.2 61 94 115 h 0
2020-01-28 17:46:03 8.5 4.1 61 94 114 h 0
2020-01-28 18:16:15 8.4 4.1 61 94 115 h 0
2020-01-28 18:46:27 8.4 4.1 61 95 116 h 0
2020-01-28 19:16:39 8.4 4.2 61 95 117 h 0
2020-01-28 19:46:51 8.4 4.1 61 94 115 h 0
2020-01-28 20:17:03 8.4 4.1 61 94 115 h 0
2020-01-28 20:47:15 8.6 4.1 61 95 115 h 0
2020-01-28 21:17:27 9.1 4.0 60 95 113 h 0
2020-01-28 21:47:39 8.7 3.9 61 94 112 h 0
2020-01-28 22:17:52 8.7 3.7 61 94 111 h 0
2020-01-28 22:48:04 8.5 3.6 61 94 110 h 0
2020-01-28 23:18:16 8.5 3.6 61 94 110 h 0
2020-01-28 23:48:38 8.4 3.5 61 94 110 h 0
2020-01-29 00:18:50 8.4 3.5 62 94 110 h 0
2020-01-29 00:49:02 8.4 3.6 62 94 111 h 0
2020-01-29 01:19:14 8.5 3.6 61 94 110 h 0
2020-01-29 01:49:26 8.4 3.6 62 95 112 h 0
2020-01-29 02:19:38 9.2 3.7 59 95 111 h 0
2020-01-29 02:49:50 9.3 3.6 59 95 110 h 0
2020-01-29 03:20:02 8.7 3.5 61 95 111 h 0
2020-01-29 03:50:15 8.5 3.4 61 94 109 h 0
2020-01-29 04:20:27 8.4 3.4 61 94 109 h 0
2020-01-29 04:50:39 8.5 3.4 61 94 109 h 0
2020-01-29 05:20:56 8.4 3.3 61 94 109 h 0
2020-01-29 05:51:08 8.4 3.2 61 95 110 h 0
2020-01-29 06:21:20 8.4 3.2 61 95 109 h 0
2020-01-29 06:51:32 8.4 3.4 61 95 111 h 0
2020-01-29 07:21:44 8.4 3.4 61 95 110 h 0
2020-01-29 07:51:56 8.4 3.4 62 95 111 h 0
2020-01-29 08:22:08 8.4 3.5 62 95 111 h 0
2020-01-29 08:52:20 8.3 3.6 62 96 113 h 0
2020-01-29 09:22:33 8.3 3.8 62 96 115 h 0
2020-01-29 09:52:55 8.3 4.0 62 96 116 h 0
2020-01-29 10:23:07 8.4 4.2 62 96 118 h 0
2020-01-29 10:53:19 8.4 4.4 62 95 118 h 0
2020-01-29 11:23:31 8.3 4.6 62 95 120 h 0
2020-01-29 11:53:43 8.4 4.7 62 95 120 h 0
2020-01-29 12:23:55 8.4 4.8 62 94 120 h 0
2020-01-29 12:54:07 8.4 4.9 62 94 120 h 0
2020-01-29 13:24:19 8.3 4.9 62 94 121 h 0
2020-01-29 13:54:31 8.5 4.7 62 93 117 h 0
2020-01-29 14:24:43 9.6 4.5 58 93 114 h 0
2020-01-29 14:54:56 8.8 4.5 61 93 115 h 0


2020-01-29 15:24:45 CET